Flight Track Log - Related Links

Times and Time Zones

All times are in EDT time to prevent confusion due to time zone crossing. See the CSN3834 flight status page for this flight to view local times or setup timezone preferences in your user account.

Time Position Orientation Groundspeed Altitude Reporting Facility
EDT Latitude Longitude Course Direction KTS MPH feet Rate Location/Type
Tue 07:53:00 AM 29.3089 91.0422 84° East  Level Estimated
Tue 07:54:00 AM 29.3200 91.1724 84° East  Level Estimated
Tue 07:55:00 AM 29.3309 91.3027 84° East  Level Estimated
Tue 07:56:00 AM 29.3417 91.4330 85° East  Level Estimated
Tue 07:57:00 AM 29.3523 91.5633 85° East  Level Estimated
Tue 07:58:00 AM 29.3628 91.6936 85° East  Level Estimated
Tue 07:59:00 AM 29.3732 91.8240 85° East  Level Estimated
Tue 08:00:00 AM 29.3835 91.9544 85° East  Level Estimated
Tue 08:01:00 AM 29.3937 92.0848 85° East  Level Estimated
Tue 08:02:00 AM 29.4037 92.2153 85° East  Level Estimated
Tue 08:03:00 AM 29.4136 92.3458 85° East  Level Estimated
Tue 08:04:00 AM 29.4233 92.4763 85° East  Level Estimated
Tue 08:05:00 AM 29.4330 92.6068 85° East  Level Estimated
Tue 08:06:00 AM 29.4425 92.7373 85° East  Level Estimated
Tue 08:07:00 AM 29.4519 92.8679 85° East  Level Estimated
Tue 08:08:00 AM 29.4611 92.9985 85° East  Level Estimated
Tue 08:09:00 AM 29.4703 93.1292 85° East  Level Estimated
Tue 08:10:00 AM 29.4793 93.2598 85° East  Level Estimated
Tue 08:11:00 AM 29.4881 93.3905 86° East  Level Estimated
Tue 08:12:00 AM 29.4969 93.5212 86° East  Level Estimated
Tue 08:13:00 AM 29.5055 93.6519 86° East  Level Estimated
Tue 08:14:00 AM 29.5140 93.7826 86° East  Level Estimated
Tue 08:15:00 AM 29.5224 93.9134 86° East  Level Estimated
Tue 08:16:00 AM 29.5306 94.0442 86° East  Level Estimated
Tue 08:17:00 AM 29.5387 94.1750 86° East  Level Estimated
Tue 08:18:00 AM 29.5467 94.3058 86° East  Level Estimated
Tue 08:19:00 AM 29.5543 94.4334 86° East  Level Estimated
Tue 08:20:00 AM 29.5619 94.5611 86° East  Level Estimated
Tue 08:21:00 AM 29.5693 94.6888 86° East  Level Estimated
Tue 08:22:00 AM 29.5766 94.8165 86° East  Level Estimated
Tue 08:23:00 AM 29.5838 94.9443 86° East  Level Estimated
Tue 08:24:00 AM 29.5908 95.0720 86° East  Level Estimated
Tue 08:25:00 AM 29.5977 95.1998 86° East  Level Estimated
Tue 08:26:00 AM 29.6045 95.3275 86° East  Level Estimated
Tue 08:27:00 AM 29.6112 95.4553 87° East  Level Estimated
Tue 08:28:00 AM 29.6178 95.5832 87° East  Level Estimated
Tue 08:29:00 AM 29.6242 95.7110 87° East  Level Estimated
Tue 08:30:00 AM 29.6305 95.8388 87° East  Level Estimated
Tue 08:31:00 AM 29.6367 95.9667 87° East  Level Estimated
Tue 08:32:00 AM 29.6428 96.0946 87° East  Level Estimated
Tue 08:33:00 AM 29.6488 96.2225 87° East  Level Estimated
Tue 08:34:00 AM 29.6546 96.3504 87° East  Level Estimated
Tue 08:35:00 AM 29.6603 96.4783 87° East  Level Estimated
Tue 08:36:00 AM 29.6658 96.6062 87° East  Level Estimated
Tue 08:37:00 AM 29.6713 96.7342 87° East  Level Estimated
Tue 08:38:00 AM 29.6766 96.8622 87° East  Level Estimated
Tue 08:39:00 AM 29.6819 96.9902 87° East  Level Estimated
Tue 08:40:00 AM 29.6869 97.1181 87° East  Level Estimated
Tue 08:41:00 AM 29.6919 97.2461 87° East  Level Estimated
Tue 08:42:00 AM 29.6967 97.3742 87° East  Level Estimated
Tue 08:43:00 AM 29.7015 97.5022 88° East  Level Estimated
Tue 08:44:00 AM 29.7061 97.6302 88° East  Level Estimated
Tue 08:45:00 AM 29.7105 97.7583 88° East  Level Estimated
Tue 08:46:00 AM 29.7149 97.8864 88° East  Level Estimated
Tue 08:47:00 AM 29.7191 98.0144 88° East  Level Estimated
Tue 08:48:00 AM 29.7232 98.1425 88° East  Level Estimated
Tue 08:49:00 AM 29.7272 98.2706 88° East  Level Estimated
Tue 08:50:00 AM 29.7310 98.3987 88° East  Level Estimated
Tue 08:51:00 AM 29.7348 98.5268 88° East  Level Estimated
Tue 08:52:00 AM 29.7384 98.6550 88° East  Level Estimated
Tue 08:53:00 AM 29.7419 98.7831 88° East  Level Estimated
Tue 08:54:00 AM 29.7452 98.9112 88° East  Level Estimated
Tue 08:55:00 AM 29.7485 99.0394 88° East  Level Estimated
Tue 08:56:00 AM 29.7516 99.1676 88° East  Level Estimated
Tue 08:57:00 AM 29.7546 99.2957 88° East  Level Estimated
Tue 08:58:00 AM 29.7574 99.4239 88° East  Level Estimated
Tue 08:59:00 AM 29.7602 99.5521 89° East  Level Estimated
Tue 09:00:00 AM 29.7628 99.6803 89° East  Level Estimated
Tue 09:01:00 AM 29.7653 99.8085 89° East  Level Estimated
Tue 09:02:00 AM 29.7677 99.9367 89° East  Level Estimated
Tue 09:03:00 AM 29.7699 100.0649 89° East  Level Estimated
Tue 09:04:00 AM 29.7720 100.1931 89° East  Level Estimated
Tue 09:05:00 AM 29.7740 100.3213 89° East  Level Estimated
Tue 09:06:00 AM 29.7759 100.4495 89° East  Level Estimated
Tue 09:07:00 AM 29.7777 100.5778 89° East  Level Estimated
Tue 09:08:00 AM 29.7793 100.7060 89° East  Level Estimated
Tue 09:09:00 AM 29.7808 100.8342 89° East  Level Estimated
Tue 09:10:00 AM 29.7822 100.9625 89° East  Level Estimated
Tue 09:11:00 AM 29.7834 101.0907 89° East  Level Estimated
Tue 09:12:00 AM 29.7846 101.2190 89° East  Level Estimated
Tue 09:13:00 AM 29.7856 101.3472 89° East  Level Estimated
Tue 09:14:00 AM 29.7865 101.4755 90° East  Level Estimated
Tue 09:15:00 AM 29.7873 101.6037 90° East  Level Estimated
Tue 09:16:00 AM 29.7879 101.7320 90° East  Level Estimated
Tue 09:17:00 AM 29.7884 101.8603 90° East  Level Estimated
Tue 09:18:00 AM 29.7888 101.9885 90° East  Level Estimated
Tue 09:19:00 AM 29.7891 102.1168 90° East  Level Estimated
Tue 09:20:00 AM 29.7892 102.2450 90° East  Level Estimated
Tue 09:21:00 AM 29.7892 102.3733 90° East  Level Estimated
Tue 09:22:00 AM 29.7891 102.5015 90° East  Level Estimated
Tue 09:23:00 AM 29.7889 102.6298 90° East  Level Estimated
Tue 09:24:00 AM 29.7886 102.7581 90° East  Level Estimated
Tue 09:25:00 AM 29.7881 102.8863 90° East  Level Estimated
Tue 09:26:00 AM 29.7875 103.0146 90° East  Level Estimated
Tue 09:27:00 AM 29.7868 103.1428 90° East  Level Estimated
Tue 09:28:00 AM 29.7859 103.2711 90° East  Level Estimated
Tue 09:29:00 AM 29.7850 103.3994 90° East  Level Estimated
Tue 09:30:00 AM 29.7839 103.5276 91° East  Level Estimated
Tue 09:31:00 AM 29.7827 103.6558 91° East  Level Estimated
Tue 09:32:00 AM 29.7813 103.7841 91° East  Level Estimated
Tue 09:33:00 AM 29.7799 103.9123 91° East  Level Estimated
Tue 09:34:00 AM 29.7783 104.0406 91° East  Level Estimated
Tue 09:35:00 AM 29.7766 104.1688 91° East  Level Estimated
Tue 09:36:00 AM 29.7747 104.2970 91° East  Level Estimated
Tue 09:37:00 AM 29.7728 104.4252 91° East  Level Estimated
Tue 09:38:00 AM 29.7707 104.5535 91° East  Level Estimated
Tue 09:39:00 AM 29.7685 104.6817 91° East  Level Estimated
Tue 09:40:00 AM 29.7661 104.8099 91° East  Level Estimated
Tue 09:41:00 AM 29.7637 104.9381 91° East  Level Estimated
Tue 09:42:00 AM 29.7611 105.0663 91° East  Level Estimated
Tue 09:43:00 AM 29.7584 105.1944 91° East  Level Estimated
Tue 09:44:00 AM 29.7556 105.3226 91° East  Level Estimated
Tue 09:45:00 AM 29.7526 105.4508 91° East  Level Estimated
Tue 09:46:00 AM 29.7496 105.5790 92° East  Level Estimated
Tue 09:47:00 AM 29.7464 105.7071 92° East  Level Estimated
Tue 09:48:00 AM 29.7431 105.8353 92° East  Level Estimated
Tue 09:49:00 AM 29.7396 105.9634 92° East  Level Estimated
Tue 09:50:00 AM 29.7361 106.0915 92° East  Level Estimated
Tue 09:51:00 AM 29.7324 106.2197 92° East  Level Estimated
Tue 09:52:00 AM 29.7286 106.3478 92° East  Level Estimated
Tue 09:53:00 AM 29.7246 106.4759 92° East  Level Estimated
Tue 09:54:00 AM 29.7206 106.6040 92° East  Level Estimated
Tue 09:55:00 AM 29.7194 106.6410 92° East  Level Estimated
Tue 09:56:00 AM 29.7194 106.6410 North  Level Estimated
Tue 09:57:00 AM 29.7194 106.6410 North  Level Estimated
Tue 09:58:00 AM 29.7194 106.6410 North  Level Estimated
Tue 09:59:00 AM 29.7194 106.6410 North  Level Estimated
Tue 10:00:00 AM 29.7194 106.6410 North  Level Estimated
Tue 10:01:00 AM 29.7194 106.6410 North  Level Estimated
Tue 10:02:00 AM 29.7194 106.6410 North  Level Estimated
Tue 10:03:00 AM 29.7194 106.6410 North  Level Estimated
Tue 10:04:00 AM 29.7194 106.6410 North  Level Estimated
Tue 10:05:00 AM 29.7194 106.6410 North  Level Estimated
Tue 10:06:00 AM 29.7194 106.6410 North  Level Estimated
Tue 10:07:00 AM 29.7194 106.6410 North  Level Estimated
Tue 10:08:00 AM 29.7194 106.6410 North  Level Estimated
Tue 10:09:00 AM 29.7194 106.6410 North  Level Estimated
Tue 10:10:00 AM 29.7194 106.6410 North  Level Estimated
Tue 10:11:00 AM 29.7194 106.6410 North  Level Estimated
Tue 10:12:00 AM 29.7194 106.6410 North  Level Estimated
Tue 10:13:00 AM 29.7194 106.6410 North  Level Estimated
Tue 10:14:00 AM 29.7194 106.6410 North  Level Estimated
Tue 10:15:00 AM 29.7194 106.6410 North  Level Estimated
Tue 10:16:00 AM 29.7194 106.6410 North  Level Estimated
Tue 10:17:00 AM 29.7194 106.6410 North  Level Estimated
Tue 10:18:00 AM 29.7194 106.6410 North  Level Estimated
Tue 10:19:00 AM 29.7194 106.6410 North  Level Estimated
Tue 10:20:00 AM 29.7194 106.6410 North  Level Estimated
Tue 10:21:00 AM 29.7194 106.6410 North  Level Estimated
Tue 10:22:00 AM 29.7194 106.6410 North  Level Estimated
Tue 10:23:00 AM 29.7194 106.6410 North  Level Estimated
Tue 10:24:00 AM 29.7194 106.6410 North  Level Estimated
Tue 10:25:00 AM 29.7194 106.6410 North  Level Estimated
Tue 10:26:00 AM 29.7194 106.6410 North  Level Estimated
Tue 10:27:00 AM 29.7194 106.6410 North  Level Estimated
Tue 10:28:00 AM 29.7194 106.6410 North  Level Estimated
Tue 10:29:00 AM 29.7194 106.6410 North  Level Estimated
Tue 10:30:00 AM 29.7194 106.6410 North  Level Estimated
Tue 10:31:00 AM 29.7194 106.6410 North  Level Estimated
Tue 10:32:00 AM 29.7194 106.6410 North  Level Estimated
Tue 10:33:00 AM 29.7194 106.6410 North  Level Estimated
Tue 10:34:00 AM 29.7194 106.6410 North  Level Estimated
Tue 10:35:00 AM 29.7194 106.6410 North  Level Estimated
Tue 10:36:00 AM 29.7194 106.6410 North  Level Estimated
Tue 10:37:00 AM 29.7194 106.6410 North  Level Estimated
Tue 10:38:00 AM 29.7194 106.6410 North  Level Estimated
Tue 10:39:00 AM 29.7194 106.6410 North  Level Estimated
Tue 10:40:00 AM 29.7194 106.6410 North  Level Estimated
Tue 10:41:00 AM 29.7194 106.6410 North  Level Estimated
Tue 10:42:00 AM 29.7194 106.6410 North  Level Estimated
Tue 10:43:00 AM 29.7194 106.6410 North  Level Estimated
Tue 10:44:00 AM 29.7194 106.6410 North  Level Estimated
Tue 10:45:00 AM 29.7194 106.6410 North  Level Estimated

Login

Don't have an account? Register now (free) for customized features, flight alerts, and more!